createdAt,value
2019-02-28T00:01:35.548Z,38.63
2019-02-28T00:05:48.503Z,22.83
2019-02-28T00:10:01.075Z,26.50
2019-02-28T00:14:13.483Z,23.33
2019-02-28T00:18:26.373Z,24.90
2019-02-28T00:22:38.992Z,18.87
2019-02-28T00:26:51.244Z,18.50
2019-02-28T00:31:04.132Z,23.93
2019-02-28T00:35:16.696Z,25.13
2019-02-28T00:39:31.406Z,23.53
2019-02-28T00:43:44.010Z,23.00
2019-02-28T00:47:56.593Z,22.90
2019-02-28T00:52:09.525Z,24.07
2019-02-28T00:56:22.014Z,21.17
2019-02-28T01:00:36.910Z,20.53
2019-02-28T01:04:48.925Z,24.60
2019-02-28T01:09:01.372Z,20.90
2019-02-28T01:13:14.232Z,17.93
2019-02-28T01:17:27.429Z,26.87
2019-02-28T01:21:40.195Z,27.47
2019-02-28T01:25:52.804Z,21.40
2019-02-28T01:30:06.721Z,27.13
2019-02-28T01:34:19.941Z,28.33
2019-02-28T01:38:32.336Z,26.53
2019-02-28T01:42:45.291Z,30.63
2019-02-28T01:46:57.747Z,28.77
2019-02-28T01:51:10.577Z,29.30
2019-02-28T01:55:23.683Z,31.60
2019-02-28T01:59:36.380Z,30.90
2019-02-28T02:03:48.887Z,29.47
2019-02-28T02:08:01.201Z,25.10
2019-02-28T02:12:14.104Z,27.50
2019-02-28T02:16:27.641Z,35.93
2019-02-28T02:20:41.526Z,25.23
2019-02-28T02:24:54.058Z,29.17
2019-02-28T02:29:06.983Z,31.73
2019-02-28T02:33:19.504Z,24.87
2019-02-28T02:37:31.794Z,36.13
2019-02-28T02:41:44.676Z,35.80
2019-02-28T02:45:57.349Z,33.60
2019-02-28T02:50:11.778Z,35.13
2019-02-28T02:54:24.339Z,36.70
2019-02-28T02:58:37.284Z,36.43
2019-02-28T03:02:49.886Z,37.53
2019-02-28T03:07:02.286Z,38.83
2019-02-28T03:11:15.274Z,35.10
2019-02-28T03:15:28.036Z,31.77
2019-02-28T03:19:41.374Z,30.73
2019-02-28T03:23:53.784Z,31.53
2019-02-28T03:28:06.581Z,35.90
2019-02-28T03:32:19.210Z,35.70
2019-02-28T03:36:31.546Z,38.30
2019-02-28T03:40:44.341Z,40.60
2019-02-28T03:44:58.099Z,31.43
2019-02-28T03:49:12.473Z,34.87
2019-02-28T03:53:25.312Z,40.43
2019-02-28T03:57:37.717Z,29.77
2019-02-28T04:01:50.909Z,40.17
2019-02-28T04:06:04.819Z,27.63
2019-02-28T04:10:22.063Z,30.47
2019-02-28T04:14:33.051Z,31.87
2019-02-28T04:18:46.766Z,39.37
2019-02-28T04:23:00.348Z,34.57
2019-02-28T04:27:13.160Z,30.67
2019-02-28T04:31:25.658Z,35.53
2019-02-28T04:35:38.132Z,34.70
2019-02-28T04:39:53.330Z,34.50
2019-02-28T04:44:05.064Z,40.70
2019-02-28T04:48:17.993Z,39.20
2019-02-28T04:52:30.497Z,30.27
2019-02-28T04:56:45.529Z,33.70
2019-02-28T05:00:57.228Z,38.40
2019-02-28T05:05:12.651Z,32.47
2019-02-28T05:09:24.881Z,33.43
2019-02-28T05:13:37.280Z,43.67
2019-02-28T05:17:49.588Z,36.53
2019-02-28T05:22:02.278Z,32.13
2019-02-28T05:26:14.740Z,38.23
2019-02-28T05:30:27.160Z,32.47
2019-02-28T05:34:40.032Z,33.63
2019-02-28T05:38:53.630Z,29.47
2019-02-28T05:43:06.446Z,39.60
2019-02-28T05:47:19.399Z,33.50
2019-02-28T05:51:32.165Z,44.30
2019-02-28T05:55:45.248Z,40.33
2019-02-28T06:00:01.259Z,40.80
2019-02-28T06:04:12.827Z,34.77
2019-02-28T06:08:26.468Z,38.60
2019-02-28T06:12:40.390Z,32.93
2019-02-28T06:16:52.924Z,34.80
2019-02-28T06:21:06.189Z,40.17
2019-02-28T06:25:23.925Z,33.40
2019-02-28T06:29:33.263Z,40.50
2019-02-28T06:33:46.244Z,47.73
2019-02-28T06:37:58.719Z,31.53
2019-02-28T06:42:11.841Z,38.67
2019-02-28T06:46:24.929Z,46.90
2019-02-28T06:50:37.717Z,36.80
2019-02-28T06:54:50.203Z,37.67
2019-02-28T06:59:04.896Z,40.40
2019-02-28T07:03:17.050Z,40.03
2019-02-28T07:07:29.392Z,34.13
2019-02-28T07:11:42.091Z,31.07
2019-02-28T07:15:55.499Z,31.73
2019-02-28T07:20:10.077Z,34.90
2019-02-28T07:24:22.758Z,40.27
2019-02-28T07:28:37.426Z,38.33
2019-02-28T07:32:49.971Z,43.37
2019-02-28T07:37:02.448Z,37.77
2019-02-28T07:41:15.443Z,37.03
2019-02-28T07:45:29.682Z,33.37
2019-02-28T07:49:42.319Z,27.07
2019-02-28T07:53:55.160Z,36.93
2019-02-28T07:58:07.502Z,37.40
2019-02-28T08:02:20.486Z,34.63
2019-02-28T08:06:32.942Z,26.53
2019-02-28T08:10:48.022Z,33.57
2019-02-28T08:14:59.874Z,28.47
2019-02-28T08:19:12.788Z,19.77
2019-02-28T08:23:29.883Z,22.20
2019-02-28T08:27:39.648Z,27.33
2019-02-28T08:31:52.621Z,33.43
2019-02-28T08:36:08.513Z,22.30
2019-02-28T08:40:20.321Z,29.60
2019-02-28T08:44:32.597Z,26.83
2019-02-28T08:48:45.591Z,29.37
2019-02-28T08:52:58.124Z,22.87
2019-02-28T08:57:10.624Z,28.73
2019-02-28T09:01:23.325Z,29.83
2019-02-28T09:05:35.889Z,31.73
2019-02-28T09:09:48.768Z,28.87
2019-02-28T09:14:01.424Z,22.60
2019-02-28T09:18:14.196Z,29.57
2019-02-28T09:22:28.065Z,25.20
2019-02-28T09:26:40.825Z,27.80
2019-02-28T09:30:53.475Z,38.33
2019-02-28T09:35:12.227Z,34.80
2019-02-28T09:39:20.426Z,33.77
2019-02-28T09:43:32.841Z,28.07
2019-02-28T09:47:45.858Z,33.80
2019-02-28T09:51:59.378Z,25.87
2019-02-28T09:56:11.939Z,24.30
2019-02-28T10:00:27.510Z,26.53
2019-02-28T10:04:39.836Z,28.20
2019-02-28T10:08:52.621Z,25.87
2019-02-28T10:13:05.183Z,24.93
2019-02-28T10:17:17.702Z,25.13
2019-02-28T10:21:33.243Z,29.03
2019-02-28T10:25:44.532Z,24.97
2019-02-28T10:29:56.996Z,27.87
2019-02-28T10:34:09.308Z,28.40
2019-02-28T10:38:21.712Z,29.03
2019-02-28T10:42:37.089Z,29.97
2019-02-28T10:46:50.308Z,32.77
2019-02-28T10:51:12.021Z,28.93
2019-02-28T10:55:19.414Z,26.53
2019-02-28T10:59:32.261Z,23.53
2019-02-28T11:03:44.825Z,23.17
2019-02-28T11:07:57.226Z,29.00
2019-02-28T11:12:10.115Z,32.33
2019-02-28T11:16:23.623Z,29.97
2019-02-28T11:20:37.862Z,28.30
2019-02-28T11:24:50.756Z,27.77
2019-02-28T11:29:03.897Z,30.43
2019-02-28T11:33:17.092Z,23.80
2019-02-28T11:37:29.468Z,27.50
2019-02-28T11:41:42.355Z,26.57
2019-02-28T11:45:56.455Z,25.70
2019-02-28T11:50:09.034Z,21.67
2019-02-28T11:54:22.017Z,20.23
2019-02-28T11:58:34.577Z,30.20
2019-02-28T12:02:53.302Z,23.20
2019-02-28T12:07:01.790Z,25.40
2019-02-28T12:11:15.444Z,24.67
2019-02-28T12:15:28.613Z,26.23
2019-02-28T12:19:41.305Z,21.47
2019-02-28T12:23:54.274Z,25.13
2019-02-28T12:28:07.949Z,19.50
2019-02-28T12:32:20.767Z,25.83
2019-02-28T12:36:33.208Z,24.17
2019-02-28T12:40:49.189Z,23.40
2019-02-28T12:45:00.254Z,20.07
2019-02-28T12:49:12.676Z,22.27
2019-02-28T12:53:25.521Z,22.80
2019-02-28T12:57:38.121Z,19.80
2019-02-28T13:01:50.475Z,24.60
2019-02-28T13:06:02.912Z,27.80
2019-02-28T13:10:17.109Z,32.40
2019-02-28T13:14:29.669Z,27.87
2019-02-28T13:18:43.615Z,23.50
2019-02-28T13:22:59.653Z,21.37
2019-02-28T13:27:10.954Z,20.43
2019-02-28T13:31:25.636Z,26.50
2019-02-28T13:35:45.738Z,27.30
2019-02-28T13:39:51.931Z,31.70
2019-02-28T13:44:04.253Z,24.67
2019-02-28T13:48:25.693Z,27.27
2019-02-28T13:52:31.408Z,30.57
2019-02-28T13:56:43.740Z,28.17
2019-02-28T14:00:56.609Z,27.50
2019-02-28T14:05:09.207Z,32.23
2019-02-28T14:09:23.004Z,34.13
2019-02-28T14:13:35.845Z,28.60
2019-02-28T14:17:48.279Z,28.87
2019-02-28T14:22:00.600Z,30.73
2019-02-28T14:26:14.071Z,33.60
2019-02-28T14:30:29.127Z,31.20
2019-02-28T14:34:41.430Z,32.73
2019-02-28T14:38:53.889Z,37.13
2019-02-28T14:43:06.845Z,37.37
2019-02-28T14:47:19.330Z,32.83
2019-02-28T14:51:31.769Z,38.03
2019-02-28T14:55:44.697Z,36.83
2019-02-28T14:59:57.553Z,36.07
2019-02-28T15:04:10.343Z,30.63
2019-02-28T15:08:22.808Z,37.60
2019-02-28T15:12:35.220Z,31.60
2019-02-28T15:16:47.524Z,36.00
2019-02-28T15:21:00.568Z,34.13
2019-02-28T15:25:15.237Z,27.27
2019-02-28T15:29:28.360Z,30.53
2019-02-28T15:33:41.767Z,34.17
2019-02-28T15:37:54.211Z,32.40
2019-02-28T15:42:08.226Z,33.33
2019-02-28T15:46:20.840Z,37.10
2019-02-28T15:50:34.392Z,35.07
2019-02-28T15:54:47.279Z,36.53
2019-02-28T15:58:59.872Z,37.13
2019-02-28T16:03:13.441Z,35.03
2019-02-28T16:07:32.407Z,30.30
2019-02-28T16:11:41.119Z,32.43
2019-02-28T16:15:54.244Z,32.77
2019-02-28T16:20:07.651Z,30.87
2019-02-28T16:24:20.001Z,33.23
2019-02-28T16:28:32.886Z,34.27
2019-02-28T16:32:45.620Z,37.43
2019-02-28T16:37:00.944Z,32.73
2019-02-28T16:41:13.724Z,31.97
2019-02-28T16:45:40.911Z,35.40
2019-02-28T16:49:53.310Z,36.73
2019-02-28T16:54:05.820Z,38.47
2019-02-28T16:58:21.789Z,41.53
2019-02-28T17:02:32.732Z,43.67
2019-02-28T17:06:45.213Z,31.67
2019-02-28T17:10:58.038Z,36.77
2019-02-28T17:15:19.626Z,32.77
2019-02-28T17:19:32.995Z,35.60
2019-02-28T17:23:45.428Z,35.07
2019-02-28T17:28:05.559Z,37.70
2019-02-28T17:32:19.039Z,46.63
2019-02-28T17:36:31.982Z,43.30
2019-02-28T17:40:44.503Z,34.90
2019-02-28T17:45:18.108Z,41.27
2019-02-28T17:50:04.215Z,35.57
2019-02-28T17:55:00.299Z,36.10
2019-02-28T17:59:47.138Z,28.83
2019-02-28T18:04:56.119Z,48.03
2019-02-28T18:09:32.152Z,36.33
2019-02-28T18:14:12.925Z,33.90
2019-02-28T18:19:08.594Z,38.00
2019-02-28T18:23:56.448Z,36.57
2019-02-28T18:28:51.014Z,38.87
2019-02-28T18:33:06.705Z,47.07
2019-02-28T18:37:20.721Z,38.57
2019-02-28T18:41:32.091Z,43.00
2019-02-28T18:45:44.904Z,43.90
2019-02-28T18:49:57.368Z,39.27
2019-02-28T18:54:09.846Z,43.77
2019-02-28T18:58:22.669Z,43.03
2019-02-28T19:02:35.024Z,43.03
2019-02-28T19:06:47.425Z,37.70
2019-02-28T19:11:00.331Z,38.60
2019-02-28T19:15:13.049Z,43.83
2019-02-28T19:19:25.972Z,34.73
2019-02-28T19:23:38.576Z,34.57
2019-02-28T19:27:50.941Z,35.00
2019-02-28T19:32:03.386Z,42.43
2019-02-28T19:36:16.146Z,35.50
2019-02-28T19:40:28.608Z,34.83
2019-02-28T19:44:41.080Z,38.90
2019-02-28T19:48:53.903Z,31.87
2019-02-28T19:53:06.433Z,27.23
2019-02-28T19:57:18.871Z,27.73
2019-02-28T20:01:31.670Z,37.53
2019-02-28T20:05:44.120Z,32.57
2019-02-28T20:09:56.437Z,32.87
2019-02-28T20:14:09.452Z,26.73
2019-02-28T20:18:21.871Z,29.30
2019-02-28T20:22:34.191Z,33.97
2019-02-28T20:26:47.085Z,37.93
2019-02-28T20:30:59.748Z,38.50
2019-02-28T20:35:12.257Z,30.33
2019-02-28T20:39:25.071Z,31.50
2019-02-28T20:43:37.499Z,23.37
2019-02-28T20:47:49.875Z,29.40
2019-02-28T20:52:02.661Z,28.03
2019-02-28T20:56:15.150Z,35.87
2019-02-28T21:00:28.326Z,29.53
2019-02-28T21:04:40.809Z,34.10
2019-02-28T21:08:53.221Z,22.63
2019-02-28T21:13:06.105Z,20.97
2019-02-28T21:17:18.654Z,25.37
2019-02-28T21:21:31.446Z,29.23
2019-02-28T21:25:44.016Z,23.13
2019-02-28T21:29:56.428Z,23.33
2019-02-28T21:34:08.856Z,29.83
2019-02-28T21:38:21.617Z,24.57
2019-02-28T21:42:34.118Z,20.80
2019-02-28T21:46:46.519Z,24.77
2019-02-28T21:50:59.356Z,23.90
2019-02-28T21:55:12.812Z,23.57
2019-02-28T21:59:25.569Z,21.07
2019-02-28T22:03:38.409Z,26.57
2019-02-28T22:07:51.174Z,19.73
2019-02-28T22:12:04.356Z,23.17
2019-02-28T22:16:16.909Z,28.73
2019-02-28T22:20:29.918Z,23.77
2019-02-28T22:24:42.559Z,21.17
2019-02-28T22:28:54.949Z,20.17
2019-02-28T22:33:11.471Z,25.23
2019-02-28T22:37:24.347Z,26.73
2019-02-28T22:41:36.805Z,25.87
2019-02-28T22:45:49.220Z,20.50
2019-02-28T22:50:02.121Z,25.07
2019-02-28T22:54:14.852Z,28.77
2019-02-28T22:58:28.075Z,22.23
2019-02-28T23:02:40.420Z,22.33
2019-02-28T23:06:52.856Z,24.97
2019-02-28T23:11:05.846Z,27.97
2019-02-28T23:15:18.292Z,20.87
2019-02-28T23:19:31.192Z,22.80
2019-02-28T23:23:44.074Z,24.60
2019-02-28T23:28:15.021Z,24.13
2019-02-28T23:32:46.334Z,24.03
2019-02-28T23:36:58.857Z,19.33
2019-02-28T23:41:11.744Z,18.80
2019-02-28T23:45:24.311Z,29.70
2019-02-28T23:49:36.622Z,21.97
2019-02-28T23:53:49.175Z,22.17
2019-02-28T23:58:02.054Z,24.33
